createdAt,value
2022-11-10T00:01:25.945Z,10.39
2022-11-10T00:06:29.240Z,10.34
2022-11-10T00:11:33.171Z,10.35
2022-11-10T00:16:54.921Z,10.37
2022-11-10T00:21:58.559Z,10.39
2022-11-10T00:27:02.564Z,10.37
2022-11-10T00:32:05.872Z,10.33
2022-11-10T00:37:09.129Z,10.31
2022-11-10T00:42:12.290Z,10.33
2022-11-10T00:47:15.420Z,10.36
2022-11-10T00:52:18.604Z,10.39
2022-11-10T00:57:21.829Z,10.38
2022-11-10T01:02:25.065Z,10.34
2022-11-10T01:07:28.234Z,10.33
2022-11-10T01:12:31.873Z,10.38
2022-11-10T01:17:35.165Z,10.41
2022-11-10T01:22:38.166Z,10.44
2022-11-10T01:27:41.417Z,10.44
2022-11-10T01:32:45.603Z,10.41
2022-11-10T01:37:48.733Z,10.37
2022-11-10T01:42:58.830Z,10.40
2022-11-10T01:48:06.821Z,10.42
2022-11-10T01:53:18.426Z,10.41
2022-11-10T01:58:32.372Z,10.36
2022-11-10T02:04:01.903Z,10.36
2022-11-10T02:09:05.409Z,10.39
2022-11-10T02:14:10.056Z,10.41
2022-11-10T02:19:25.962Z,10.39
2022-11-10T02:24:28.964Z,10.36
2022-11-10T02:29:32.110Z,10.37
2022-11-10T02:34:35.173Z,10.40
2022-11-10T02:39:38.399Z,10.42
2022-11-10T02:44:42.586Z,10.40
2022-11-10T02:49:45.737Z,10.34
2022-11-10T02:54:49.028Z,10.30
2022-11-10T02:59:52.136Z,10.29
2022-11-10T03:04:55.252Z,10.31
2022-11-10T03:09:58.451Z,10.30
2022-11-10T03:15:01.455Z,10.26
2022-11-10T03:20:05.995Z,10.21
2022-11-10T03:25:11.008Z,10.18
2022-11-10T03:30:14.773Z,10.20
2022-11-10T03:35:18.082Z,10.22
2022-11-10T03:40:22.311Z,10.18
2022-11-10T03:45:25.622Z,10.14
2022-11-10T03:50:28.734Z,10.15
2022-11-10T03:55:31.867Z,10.15
2022-11-10T04:00:35.450Z,10.14
2022-11-10T04:05:57.403Z,10.11
2022-11-10T04:11:00.725Z,10.04
2022-11-10T04:16:03.814Z,10.02
2022-11-10T04:21:06.949Z,10.03
2022-11-10T04:26:29.182Z,10.05
2022-11-10T04:31:37.449Z,10.02
2022-11-10T04:36:43.589Z,9.97
2022-11-10T04:41:47.610Z,9.93
2022-11-10T04:46:50.722Z,9.95
2022-11-10T04:51:53.946Z,9.96
2022-11-10T04:56:57.750Z,9.96
2022-11-10T05:02:00.982Z,9.92
2022-11-10T05:07:04.202Z,9.85
2022-11-10T05:12:07.475Z,9.84
2022-11-10T05:17:10.625Z,9.85
2022-11-10T05:22:14.612Z,9.87
2022-11-10T05:27:17.962Z,9.88
2022-11-10T05:32:21.131Z,9.86
2022-11-10T05:37:24.341Z,9.82
2022-11-10T05:42:27.753Z,9.78
2022-11-10T05:47:31.433Z,9.78
2022-11-10T05:52:36.080Z,9.81
2022-11-10T05:57:42.002Z,9.79
2022-11-10T06:02:45.603Z,9.76
2022-11-10T06:07:48.711Z,9.73
2022-11-10T06:12:52.580Z,9.75
2022-11-10T06:17:56.768Z,9.81
2022-11-10T06:23:07.150Z,9.85
2022-11-10T06:28:11.182Z,9.84
2022-11-10T06:33:14.376Z,9.77
2022-11-10T06:38:17.491Z,9.72
2022-11-10T06:43:21.000Z,9.74
2022-11-10T06:48:24.519Z,9.77
2022-11-10T06:53:27.985Z,9.78
2022-11-10T06:58:31.554Z,9.80
2022-11-10T07:03:38.831Z,9.78
2022-11-10T07:08:48.998Z,9.78
2022-11-10T07:13:52.137Z,9.81
2022-11-10T07:18:55.344Z,9.88
2022-11-10T07:23:58.547Z,9.95
2022-11-10T07:29:01.858Z,9.97
2022-11-10T07:34:04.967Z,9.95
2022-11-10T07:39:08.179Z,10.01
2022-11-10T07:44:11.297Z,10.07
2022-11-10T07:49:15.247Z,10.15
2022-11-10T07:54:18.417Z,10.21
2022-11-10T07:59:21.631Z,10.26
2022-11-10T08:04:24.930Z,10.23
2022-11-10T08:09:28.140Z,10.30
2022-11-10T08:14:32.089Z,10.33
2022-11-10T08:19:35.278Z,10.37
2022-11-10T08:24:38.385Z,10.44
2022-11-10T08:29:41.696Z,10.57
2022-11-10T08:34:44.899Z,10.67
2022-11-10T08:39:48.009Z,10.83
2022-11-10T08:44:51.322Z,10.93
2022-11-10T08:49:54.525Z,11.01
2022-11-10T08:54:57.656Z,11.10
2022-11-10T09:00:01.099Z,11.05
2022-11-10T09:05:05.056Z,11.01
2022-11-10T09:10:09.073Z,11.04
2022-11-10T09:15:13.540Z,11.11
2022-11-10T09:20:16.646Z,11.30
2022-11-10T09:25:19.908Z,11.53
2022-11-10T09:30:23.765Z,11.72
2022-11-10T09:35:27.772Z,11.70
2022-11-10T09:40:49.040Z,11.65
2022-11-10T09:45:58.058Z,11.68
2022-11-10T09:51:19.931Z,11.71
2022-11-10T09:56:37.133Z,11.69
2022-11-10T10:02:14.375Z,11.71
2022-11-10T10:07:41.664Z,11.73
2022-11-10T10:13:23.458Z,11.72
2022-11-10T10:18:48.783Z,11.83
2022-11-10T10:24:09.358Z,11.83
2022-11-10T10:29:37.276Z,11.83
2022-11-10T10:34:43.469Z,11.89
2022-11-10T10:39:51.872Z,11.86
2022-11-10T10:45:20.834Z,11.90
2022-11-10T10:50:42.350Z,11.93
2022-11-10T10:56:00.724Z,11.98
2022-11-10T11:01:26.617Z,12.03
2022-11-10T11:06:33.477Z,12.07
2022-11-10T11:11:41.009Z,12.00
2022-11-10T11:17:21.406Z,12.03
2022-11-10T11:22:47.156Z,12.05
2022-11-10T11:28:26.224Z,12.05
2022-11-10T11:33:47.567Z,11.98
2022-11-10T11:38:53.740Z,11.96
2022-11-10T11:44:55.035Z,12.00
2022-11-10T11:50:25.758Z,12.01
2022-11-10T11:56:06.135Z,12.11
2022-11-10T12:01:21.844Z,12.26
2022-11-10T12:07:22.597Z,12.26
2022-11-10T12:13:09.120Z,12.23
2022-11-10T12:18:52.092Z,12.21
2022-11-10T12:24:42.170Z,12.25
2022-11-10T12:29:54.081Z,12.25
2022-11-10T12:35:21.054Z,12.22
2022-11-10T12:40:42.066Z,12.24
2022-11-10T12:45:57.412Z,12.22
2022-11-10T12:51:17.398Z,12.20
2022-11-10T12:56:34.200Z,12.23
2022-11-10T13:01:44.717Z,12.21
2022-11-10T13:07:11.788Z,12.11
2022-11-10T13:12:25.022Z,11.91
2022-11-10T13:17:28.621Z,11.78
2022-11-10T13:22:37.123Z,11.70
2022-11-10T13:27:46.076Z,11.69
2022-11-10T13:32:49.316Z,11.67
2022-11-10T13:37:52.600Z,11.65
2022-11-10T13:42:58.785Z,11.60
2022-11-10T13:48:28.537Z,11.60
2022-11-10T13:54:03.152Z,11.62
2022-11-10T13:59:28.905Z,11.59
2022-11-10T14:04:43.347Z,11.62
2022-11-10T14:09:52.790Z,11.72
2022-11-10T14:15:03.762Z,11.71
2022-11-10T14:20:27.582Z,11.69
2022-11-10T14:25:40.174Z,11.67
2022-11-10T14:30:52.635Z,11.61
2022-11-10T14:36:02.963Z,11.61
2022-11-10T14:41:14.368Z,11.57
2022-11-10T14:46:25.110Z,11.44
2022-11-10T14:51:30.042Z,11.31
2022-11-10T14:56:37.271Z,11.23
2022-11-10T15:01:50.292Z,11.16
2022-11-10T15:06:55.586Z,11.08
2022-11-10T15:12:22.013Z,10.97
2022-11-10T15:17:52.050Z,10.87
2022-11-10T15:22:59.780Z,10.84
2022-11-10T15:28:28.374Z,10.81
2022-11-10T15:33:39.260Z,10.74
2022-11-10T15:38:43.508Z,10.64
2022-11-10T15:43:46.716Z,10.58
2022-11-10T15:48:52.341Z,10.52
2022-11-10T15:53:55.678Z,10.51
2022-11-10T15:59:02.029Z,10.50
2022-11-10T16:04:10.289Z,10.50
2022-11-10T16:09:14.432Z,10.46
2022-11-10T16:14:18.752Z,10.39
2022-11-10T16:19:22.062Z,10.33
2022-11-10T16:24:25.278Z,10.27
2022-11-10T16:29:28.589Z,10.18
2022-11-10T16:34:31.688Z,10.03
2022-11-10T16:39:35.001Z,9.92
2022-11-10T16:44:42.303Z,9.85
2022-11-10T16:49:46.545Z,9.78
2022-11-10T16:54:49.643Z,9.72
2022-11-10T16:59:52.748Z,9.64
2022-11-10T17:04:56.504Z,9.56
2022-11-10T17:10:01.693Z,9.52
2022-11-10T17:15:05.834Z,9.48
2022-11-10T17:20:24.735Z,9.46
2022-11-10T17:25:33.386Z,9.46
2022-11-10T17:30:36.581Z,9.48
2022-11-10T17:35:49.540Z,9.46
2022-11-10T17:40:53.789Z,9.40
2022-11-10T17:45:57.063Z,9.31
2022-11-10T17:51:01.721Z,9.21
2022-11-10T17:56:05.627Z,9.14
2022-11-10T18:01:18.759Z,9.12
2022-11-10T18:06:22.182Z,9.11
2022-11-10T18:11:25.286Z,9.06
2022-11-10T18:16:28.618Z,9.00
2022-11-10T18:21:32.152Z,9.00
2022-11-10T18:26:35.429Z,9.00
2022-11-10T18:31:38.564Z,8.99
2022-11-10T18:36:42.175Z,8.95
2022-11-10T18:41:51.123Z,8.89
2022-11-10T18:46:54.613Z,8.85
2022-11-10T18:51:58.593Z,8.82
2022-11-10T18:57:01.743Z,8.79
2022-11-10T19:02:05.815Z,8.76
2022-11-10T19:07:09.450Z,8.71
2022-11-10T19:12:13.388Z,8.62
2022-11-10T19:17:17.262Z,8.58
2022-11-10T19:22:20.559Z,8.55
2022-11-10T19:27:23.857Z,8.50
2022-11-10T19:32:27.069Z,8.42
2022-11-10T19:37:34.666Z,8.34
2022-11-10T19:42:38.136Z,8.28
2022-11-10T19:47:42.511Z,8.28
2022-11-10T19:52:45.843Z,8.30
2022-11-10T19:57:48.957Z,8.28
2022-11-10T20:02:52.260Z,8.22
2022-11-10T20:08:13.932Z,8.16
2022-11-10T20:13:17.008Z,8.04
2022-11-10T20:18:20.121Z,7.96
2022-11-10T20:23:23.897Z,7.92
2022-11-10T20:28:28.943Z,7.87
2022-11-10T20:33:33.639Z,7.84
2022-11-10T20:38:38.296Z,7.74
2022-11-10T20:43:42.306Z,7.64
2022-11-10T20:48:46.737Z,7.57
2022-11-10T20:53:49.942Z,7.55
2022-11-10T20:58:53.874Z,7.57
2022-11-10T21:03:57.096Z,7.58
2022-11-10T21:09:00.490Z,7.54
2022-11-10T21:14:03.802Z,7.45
2022-11-10T21:19:07.338Z,7.39
2022-11-10T21:24:11.555Z,7.40
2022-11-10T21:29:14.755Z,7.44
2022-11-10T21:34:18.083Z,7.48
2022-11-10T21:39:21.376Z,7.49
2022-11-10T21:44:26.636Z,7.49
2022-11-10T21:49:29.741Z,7.45
2022-11-10T21:54:32.986Z,7.37
2022-11-10T21:59:36.366Z,7.29
2022-11-10T22:04:39.481Z,7.28
2022-11-10T22:10:01.622Z,7.29
2022-11-10T22:15:25.322Z,7.33
2022-11-10T22:20:29.645Z,7.39
2022-11-10T22:25:32.855Z,7.41
2022-11-10T22:30:37.252Z,7.36
2022-11-10T22:35:43.377Z,7.25
2022-11-10T22:41:05.416Z,7.17
2022-11-10T22:46:08.438Z,7.13
2022-11-10T22:51:11.634Z,7.13
2022-11-10T22:56:15.656Z,7.16
2022-11-10T23:01:19.353Z,7.14
2022-11-10T23:06:22.690Z,7.11
2022-11-10T23:11:30.251Z,7.07
2022-11-10T23:16:35.501Z,7.05
2022-11-10T23:21:38.765Z,7.07
2022-11-10T23:26:42.074Z,7.11
2022-11-10T23:31:45.182Z,7.12
2022-11-10T23:36:48.387Z,7.07
2022-11-10T23:41:51.496Z,6.97
2022-11-10T23:46:54.616Z,6.88
2022-11-10T23:51:57.816Z,6.79
2022-11-10T23:57:01.229Z,6.76
